sensor_id;sensor_type;location;lat;lon;timestamp;pressure;altitude;pressure_sealevel;temperature;humidity
64362;BME280;50685;53.346;-6.296;2023-06-24T00:00:27;101647.88;;;19.41;77.86
64362;BME280;50685;53.346;-6.296;2023-06-24T00:02:53;101672.69;;;19.49;77.79
64362;BME280;50685;53.346;-6.296;2023-06-24T00:05:19;101680.84;;;19.46;78.21
64362;BME280;50685;53.346;-6.296;2023-06-24T00:07:47;101629.81;;;19.19;77.74
64362;BME280;50685;53.346;-6.296;2023-06-24T00:10:16;101654.47;;;19.32;78.02
64362;BME280;50685;53.346;-6.296;2023-06-24T00:12:41;101650.88;;;19.32;77.69
64362;BME280;50685;53.346;-6.296;2023-06-24T00:15:07;101637.81;;;19.21;77.48
64362;BME280;50685;53.346;-6.296;2023-06-24T00:17:46;101685.31;;;19.47;77.56
64362;BME280;50685;53.346;-6.296;2023-06-24T00:20:11;101653.06;;;19.20;77.77
64362;BME280;50685;53.346;-6.296;2023-06-24T00:22:39;101670.63;;;19.31;77.56
64362;BME280;50685;53.346;-6.296;2023-06-24T00:25:09;101649.69;;;19.15;77.77
64362;BME280;50685;53.346;-6.296;2023-06-24T00:27:38;101652.38;;;19.15;77.79
64362;BME280;50685;53.346;-6.296;2023-06-24T00:30:04;101685.69;;;19.36;77.52
64362;BME280;50685;53.346;-6.296;2023-06-24T00:32:30;101674.38;;;19.26;77.87
64362;BME280;50685;53.346;-6.296;2023-06-24T00:34:58;101670.84;;;19.24;77.52
64362;BME280;50685;53.346;-6.296;2023-06-24T00:37:28;101661.28;;;19.17;77.52
64362;BME280;50685;53.346;-6.296;2023-06-24T00:40:01;101700.78;;;19.40;77.70
64362;BME280;50685;53.346;-6.296;2023-06-24T00:42:32;101700.00;;;19.37;77.19
64362;BME280;50685;53.346;-6.296;2023-06-24T00:44:58;101649.00;;;19.08;77.00
64362;BME280;50685;53.346;-6.296;2023-06-24T00:47:29;101675.44;;;19.22;77.11
64362;BME280;50685;53.346;-6.296;2023-06-24T00:50:05;101681.72;;;19.21;77.25
64362;BME280;50685;53.346;-6.296;2023-06-24T00:52:41;101709.19;;;19.31;77.52
64362;BME280;50685;53.346;-6.296;2023-06-24T00:55:19;101655.47;;;19.03;77.17
64362;BME280;50685;53.346;-6.296;2023-06-24T00:57:49;101681.81;;;19.18;77.00
64362;BME280;50685;53.346;-6.296;2023-06-24T01:00:25;101659.09;;;19.02;77.47
64362;BME280;50685;53.346;-6.296;2023-06-24T01:03:14;101648.75;;;18.89;77.76
64362;BME280;50685;53.346;-6.296;2023-06-24T01:05:44;101686.34;;;19.18;77.54
64362;BME280;50685;53.346;-6.296;2023-06-24T01:10:42;101708.63;;;19.21;78.01
64362;BME280;50685;53.346;-6.296;2023-06-24T01:13:08;101664.63;;;18.97;77.93
64362;BME280;50685;53.346;-6.296;2023-06-24T01:15:35;101708.63;;;19.21;77.82
64362;BME280;50685;53.346;-6.296;2023-06-24T01:26:31;101666.53;;;18.93;77.40
64362;BME280;50685;53.346;-6.296;2023-06-24T01:32:23;101703.75;;;19.06;77.37
64362;BME280;50685;53.346;-6.296;2023-06-24T01:35:12;101707.06;;;19.14;77.55
64362;BME280;50685;53.346;-6.296;2023-06-24T01:37:45;101704.38;;;19.14;77.58
64362;BME280;50685;53.346;-6.296;2023-06-24T01:40:37;101689.50;;;19.04;77.46
64362;BME280;50685;53.346;-6.296;2023-06-24T01:43:08;101696.53;;;19.08;77.74
64362;BME280;50685;53.346;-6.296;2023-06-24T01:45:49;101651.69;;;18.82;77.59
64362;BME280;50685;53.346;-6.296;2023-06-24T01:48:19;101681.59;;;18.99;77.58
64362;BME280;50685;53.346;-6.296;2023-06-24T01:50:59;101695.59;;;19.09;77.63
64362;BME280;50685;53.346;-6.296;2023-06-24T01:53:33;101688.53;;;19.06;77.80
64362;BME280;50685;53.346;-6.296;2023-06-24T01:56:03;101649.03;;;18.80;77.70
64362;BME280;50685;53.346;-6.296;2023-06-24T01:58:31;101698.34;;;19.07;77.43
64362;BME280;50685;53.346;-6.296;2023-06-24T02:01:12;101650.91;;;18.78;77.40
64362;BME280;50685;53.346;-6.296;2023-06-24T02:03:38;101691.25;;;19.05;77.55
64362;BME280;50685;53.346;-6.296;2023-06-24T02:06:06;101692.97;;;19.07;77.59
64362;BME280;50685;53.346;-6.296;2023-06-24T02:08:35;101682.25;;;19.06;77.57
64362;BME280;50685;53.346;-6.296;2023-06-24T02:11:03;101656.88;;;18.88;77.88
64362;BME280;50685;53.346;-6.296;2023-06-24T02:13:31;101670.00;;;18.97;77.90
64362;BME280;50685;53.346;-6.296;2023-06-24T02:16:02;101654.09;;;18.91;77.88
64362;BME280;50685;53.346;-6.296;2023-06-24T02:18:48;101633.13;;;18.74;78.28
64362;BME280;50685;53.346;-6.296;2023-06-24T02:21:17;101678.84;;;19.01;78.55
64362;BME280;50685;53.346;-6.296;2023-06-24T02:23:48;101688.69;;;19.02;78.62
64362;BME280;50685;53.346;-6.296;2023-06-24T02:26:17;101647.38;;;18.76;78.68
64362;BME280;50685;53.346;-6.296;2023-06-24T02:28:47;101644.72;;;18.76;78.99
64362;BME280;50685;53.346;-6.296;2023-06-24T02:31:17;101675.50;;;18.94;79.09
64362;BME280;50685;53.346;-6.296;2023-06-24T02:33:46;101688.63;;;19.03;79.26
64362;BME280;50685;53.346;-6.296;2023-06-24T02:36:18;101671.78;;;18.98;79.16
64362;BME280;50685;53.346;-6.296;2023-06-24T02:38:43;101682.16;;;19.09;79.12
64362;BME280;50685;53.346;-6.296;2023-06-24T02:41:09;101661.84;;;19.00;79.04
64362;BME280;50685;53.346;-6.296;2023-06-24T02:43:35;101652.22;;;18.93;78.81
64362;BME280;50685;53.346;-6.296;2023-06-24T02:46:09;101639.84;;;18.87;78.93
64362;BME280;50685;53.346;-6.296;2023-06-24T02:48:37;101677.59;;;19.11;78.60
64362;BME280;50685;53.346;-6.296;2023-06-24T02:51:07;101661.78;;;19.02;78.83
64362;BME280;50685;53.346;-6.296;2023-06-24T02:53:33;101633.97;;;19.03;78.68
64362;BME280;50685;53.346;-6.296;2023-06-24T02:55:59;101655.22;;;19.10;78.59
64362;BME280;50685;53.346;-6.296;2023-06-24T02:58:25;101675.22;;;19.29;78.38
64362;BME280;50685;53.346;-6.296;2023-06-24T03:01:00;101654.94;;;19.18;78.60
64362;BME280;50685;53.346;-6.296;2023-06-24T03:03:26;101661.78;;;19.27;78.56
64362;BME280;50685;53.346;-6.296;2023-06-24T03:05:54;101625.63;;;19.10;78.82
64362;BME280;50685;53.346;-6.296;2023-06-24T03:08:28;101642.31;;;19.20;78.61
64362;BME280;50685;53.346;-6.296;2023-06-24T03:10:55;101650.16;;;19.26;78.63
64362;BME280;50685;53.346;-6.296;2023-06-24T03:13:24;101658.16;;;19.30;78.56
64362;BME280;50685;53.346;-6.296;2023-06-24T03:15:50;101636.09;;;19.18;78.50
64362;BME280;50685;53.346;-6.296;2023-06-24T03:18:16;101641.25;;;19.26;78.44
64362;BME280;50685;53.346;-6.296;2023-06-24T03:20:55;101640.47;;;19.22;78.88
64362;BME280;50685;53.346;-6.296;2023-06-24T03:23:21;101664.72;;;19.46;78.86
64362;BME280;50685;53.346;-6.296;2023-06-24T03:25:46;101647.31;;;19.31;78.71
64362;BME280;50685;53.346;-6.296;2023-06-24T03:28:12;101651.66;;;19.35;78.85
64362;BME280;50685;53.346;-6.296;2023-06-24T03:30:38;101643.56;;;19.35;78.68
64362;BME280;50685;53.346;-6.296;2023-06-24T03:33:06;101667.13;;;19.54;79.05
64362;BME280;50685;53.346;-6.296;2023-06-24T03:35:32;101674.31;;;19.53;78.93
64362;BME280;50685;53.346;-6.296;2023-06-24T03:37:58;101630.34;;;19.29;79.86
64362;BME280;50685;53.346;-6.296;2023-06-24T03:40:26;101665.78;;;19.42;80.19
64362;BME280;50685;53.346;-6.296;2023-06-24T03:42:54;101672.78;;;19.46;80.39
64362;BME280;50685;53.346;-6.296;2023-06-24T03:45:20;101651.88;;;19.29;80.27
64362;BME280;50685;53.346;-6.296;2023-06-24T03:47:45;101652.09;;;19.23;80.56
64362;BME280;50685;53.346;-6.296;2023-06-24T03:50:11;101688.06;;;19.46;80.69
64362;BME280;50685;53.346;-6.296;2023-06-24T03:52:36;101679.44;;;19.36;80.73
64362;BME280;50685;53.346;-6.296;2023-06-24T03:55:02;101655.78;;;19.20;80.86
64362;BME280;50685;53.346;-6.296;2023-06-24T03:57:29;101658.41;;;19.22;80.54
64362;BME280;50685;53.346;-6.296;2023-06-24T03:59:55;101656.63;;;19.21;80.97
64362;BME280;50685;53.346;-6.296;2023-06-24T04:02:20;101680.16;;;19.41;80.74
64362;BME280;50685;53.346;-6.296;2023-06-24T04:04:47;101648.47;;;19.24;80.87
64362;BME280;50685;53.346;-6.296;2023-06-24T04:07:16;101683.78;;;19.40;81.06
64362;BME280;50685;53.346;-6.296;2023-06-24T04:09:54;101653.06;;;19.20;81.41
64362;BME280;50685;53.346;-6.296;2023-06-24T04:12:20;101669.69;;;19.33;80.90
64362;BME280;50685;53.346;-6.296;2023-06-24T04:14:45;101652.09;;;19.23;80.91
64362;BME280;50685;53.346;-6.296;2023-06-24T04:17:11;101646.72;;;19.23;81.03
64362;BME280;50685;53.346;-6.296;2023-06-24T04:19:36;101651.78;;;19.32;80.71
64362;BME280;50685;53.346;-6.296;2023-06-24T04:22:02;101665.88;;;19.39;80.46
64362;BME280;50685;53.346;-6.296;2023-06-24T04:24:30;101695.41;;;19.66;80.28
64362;BME280;50685;53.346;-6.296;2023-06-24T04:26:59;101708.88;;;19.66;80.38
64362;BME280;50685;53.346;-6.296;2023-06-24T04:29:24;101700.78;;;19.66;80.89
64362;BME280;50685;53.346;-6.296;2023-06-24T04:31:50;101684.16;;;19.54;81.08
64362;BME280;50685;53.346;-6.296;2023-06-24T04:34:19;101694.63;;;19.62;81.09
64362;BME280;50685;53.346;-6.296;2023-06-24T04:36:44;101709.47;;;19.74;80.93
64362;BME280;50685;53.346;-6.296;2023-06-24T04:39:10;101670.81;;;19.51;80.60
64362;BME280;50685;53.346;-6.296;2023-06-24T04:41:36;101676.88;;;19.56;80.54
64362;BME280;50685;53.346;-6.296;2023-06-24T04:44:02;101662.84;;;19.48;80.76
64362;BME280;50685;53.346;-6.296;2023-06-24T04:46:29;101673.44;;;19.53;80.75
64362;BME280;50685;53.346;-6.296;2023-06-24T04:48:54;101671.63;;;19.53;80.48
64362;BME280;50685;53.346;-6.296;2023-06-24T04:51:20;101677.78;;;19.57;80.61
64362;BME280;50685;53.346;-6.296;2023-06-24T04:53:46;101681.25;;;19.61;80.57
64362;BME280;50685;53.346;-6.296;2023-06-24T04:56:11;101698.00;;;19.69;80.63
64362;BME280;50685;53.346;-6.296;2023-06-24T04:58:37;101721.69;;;19.84;80.90
64362;BME280;50685;53.346;-6.296;2023-06-24T05:01:02;101687.66;;;19.56;80.94
64362;BME280;50685;53.346;-6.296;2023-06-24T05:03:31;101730.59;;;19.86;80.96
64362;BME280;50685;53.346;-6.296;2023-06-24T05:05:57;101735.03;;;19.87;80.86
64362;BME280;50685;53.346;-6.296;2023-06-24T05:08:28;101726.91;;;19.89;80.82
64362;BME280;50685;53.346;-6.296;2023-06-24T05:10:53;101675.97;;;19.57;80.95
64362;BME280;50685;53.346;-6.296;2023-06-24T05:13:19;101730.41;;;19.91;80.97
64362;BME280;50685;53.346;-6.296;2023-06-24T05:15:48;101685.47;;;19.68;80.27
64362;BME280;50685;53.346;-6.296;2023-06-24T05:18:16;101677.41;;;19.68;80.29
64362;BME280;50685;53.346;-6.296;2023-06-24T05:20:41;101687.72;;;19.80;79.76
64362;BME280;50685;53.346;-6.296;2023-06-24T05:23:10;101666.50;;;19.71;79.37
64362;BME280;50685;53.346;-6.296;2023-06-24T05:25:38;101691.19;;;19.84;79.32
64362;BME280;50685;53.346;-6.296;2023-06-24T05:28:04;101676.09;;;19.78;78.77
64362;BME280;50685;53.346;-6.296;2023-06-24T05:30:29;101718.75;;;20.14;78.15
64362;BME280;50685;53.346;-6.296;2023-06-24T05:32:55;101674.44;;;19.99;77.12
64362;BME280;50685;53.346;-6.296;2023-06-24T05:35:21;101668.06;;;20.02;75.97
64362;BME280;50685;53.346;-6.296;2023-06-24T05:38:11;101689.66;;;20.24;75.39
64362;BME280;50685;53.346;-6.296;2023-06-24T05:40:37;101721.16;;;20.46;74.69
64362;BME280;50685;53.346;-6.296;2023-06-24T05:43:14;101686.84;;;20.27;74.11
64362;BME280;50685;53.346;-6.296;2023-06-24T05:45:40;101730.50;;;20.59;74.59
64362;BME280;50685;53.346;-6.296;2023-06-24T05:48:08;101728.75;;;20.58;73.77
64362;BME280;50685;53.346;-6.296;2023-06-24T05:50:34;101668.84;;;20.28;73.59
64362;BME280;50685;53.346;-6.296;2023-06-24T05:53:00;101705.63;;;20.52;73.39
64362;BME280;50685;53.346;-6.296;2023-06-24T05:55:25;101723.03;;;20.66;73.35
64362;BME280;50685;53.346;-6.296;2023-06-24T05:57:57;101713.69;;;20.76;72.51
64362;BME280;50685;53.346;-6.296;2023-06-24T06:00:22;101703.91;;;20.74;72.51
64362;BME280;50685;53.346;-6.296;2023-06-24T06:02:51;101675.72;;;20.59;71.87
64362;BME280;50685;53.346;-6.296;2023-06-24T06:05:19;101691.84;;;20.82;72.30
64362;BME280;50685;53.346;-6.296;2023-06-24T06:07:45;101681.19;;;20.79;71.67
64362;BME280;50685;53.346;-6.296;2023-06-24T06:12:43;101682.00;;;20.81;71.22
64362;BME280;50685;53.346;-6.296;2023-06-24T06:15:12;101695.91;;;20.93;70.63
64362;BME280;50685;53.346;-6.296;2023-06-24T06:17:38;101687.72;;;20.96;70.75
64362;BME280;50685;53.346;-6.296;2023-06-24T06:20:04;101675.50;;;21.08;70.13
64362;BME280;50685;53.346;-6.296;2023-06-24T06:22:36;101671.38;;;20.99;68.76
64362;BME280;50685;53.346;-6.296;2023-06-24T06:25:25;101717.69;;;21.31;68.59
64362;BME280;50685;53.346;-6.296;2023-06-24T06:27:54;101717.69;;;21.51;68.01
64362;BME280;50685;53.346;-6.296;2023-06-24T06:30:23;101704.34;;;21.48;67.38
64362;BME280;50685;53.346;-6.296;2023-06-24T06:32:48;101666.94;;;21.39;67.71
64362;BME280;50685;53.346;-6.296;2023-06-24T06:35:14;101693.28;;;21.55;67.63
64362;BME280;50685;53.346;-6.296;2023-06-24T06:37:45;101711.50;;;21.70;66.99
64362;BME280;50685;53.346;-6.296;2023-06-24T06:40:25;101721.34;;;21.71;66.49
64362;BME280;50685;53.346;-6.296;2023-06-24T06:42:52;101712.59;;;21.66;66.72
64362;BME280;50685;53.346;-6.296;2023-06-24T06:45:18;101722.97;;;21.75;66.47
64362;BME280;50685;53.346;-6.296;2023-06-24T06:47:44;101674.47;;;21.32;66.64
64362;BME280;50685;53.346;-6.296;2023-06-24T06:50:19;101700.91;;;21.45;67.02
64362;BME280;50685;53.346;-6.296;2023-06-24T06:52:47;101676.88;;;21.18;67.66
64362;BME280;50685;53.346;-6.296;2023-06-24T06:55:12;101722.13;;;21.32;67.90
64362;BME280;50685;53.346;-6.296;2023-06-24T06:57:38;101675.44;;;21.09;67.93
64362;BME280;50685;53.346;-6.296;2023-06-24T07:02:41;101683.34;;;21.55;66.89
64362;BME280;50685;53.346;-6.296;2023-06-24T07:05:07;101695.66;;;21.62;66.02
64362;BME280;50685;53.346;-6.296;2023-06-24T07:07:38;101678.00;;;21.54;65.07
64362;BME280;50685;53.346;-6.296;2023-06-24T07:10:04;101733.06;;;21.91;65.11
64362;BME280;50685;53.346;-6.296;2023-06-24T07:12:42;101715.84;;;21.93;64.31
64362;BME280;50685;53.346;-6.296;2023-06-24T07:15:13;101693.50;;;21.90;63.37
64362;BME280;50685;53.346;-6.296;2023-06-24T07:17:44;101714.94;;;22.13;62.80
64362;BME280;50685;53.346;-6.296;2023-06-24T07:20:12;101725.31;;;22.23;62.32
64362;BME280;50685;53.346;-6.296;2023-06-24T07:22:37;101688.88;;;22.12;62.21
64362;BME280;50685;53.346;-6.296;2023-06-24T07:25:03;101740.81;;;22.57;61.98
64362;BME280;50685;53.346;-6.296;2023-06-24T07:27:29;101695.22;;;22.50;60.68
64362;BME280;50685;53.346;-6.296;2023-06-24T07:29:57;101698.06;;;22.66;59.87
64362;BME280;50685;53.346;-6.296;2023-06-24T07:32:23;101686.00;;;22.73;59.84
64362;BME280;50685;53.346;-6.296;2023-06-24T07:34:51;101700.13;;;22.97;59.60
64362;BME280;50685;53.346;-6.296;2023-06-24T07:37:20;101693.81;;;22.97;58.93
64362;BME280;50685;53.346;-6.296;2023-06-24T07:39:48;101735.31;;;23.15;58.31
64362;BME280;50685;53.346;-6.296;2023-06-24T07:45:09;101759.22;;;23.77;57.12
64362;BME280;50685;53.346;-6.296;2023-06-24T07:47:36;101724.63;;;23.82;56.47
64362;BME280;50685;53.346;-6.296;2023-06-24T07:50:05;101734.91;;;23.93;56.33
64362;BME280;50685;53.346;-6.296;2023-06-24T07:52:31;101735.41;;;24.17;56.19
64362;BME280;50685;53.346;-6.296;2023-06-24T07:54:57;101749.84;;;24.33;54.98
64362;BME280;50685;53.346;-6.296;2023-06-24T07:57:22;101763.25;;;24.52;54.19
64362;BME280;50685;53.346;-6.296;2023-06-24T07:59:48;101762.31;;;24.53;54.28
64362;BME280;50685;53.346;-6.296;2023-06-24T08:05:04;101750.91;;;24.63;53.25
64362;BME280;50685;53.346;-6.296;2023-06-24T08:07:29;101751.81;;;24.63;53.73
64362;BME280;50685;53.346;-6.296;2023-06-24T08:12:29;101771.88;;;24.77;52.13
64362;BME280;50685;53.346;-6.296;2023-06-24T08:14:57;101757.34;;;24.94;52.60
64362;BME280;50685;53.346;-6.296;2023-06-24T08:17:22;101788.97;;;25.25;51.55
64362;BME280;50685;53.346;-6.296;2023-06-24T08:19:48;101747.47;;;25.07;51.68
64362;BME280;50685;53.346;-6.296;2023-06-24T08:22:14;101769.91;;;25.11;51.20
64362;BME280;50685;53.346;-6.296;2023-06-24T08:24:42;101756.44;;;24.93;51.08
64362;BME280;50685;53.346;-6.296;2023-06-24T08:27:11;101770.22;;;25.21;51.67
64362;BME280;50685;53.346;-6.296;2023-06-24T08:29:37;101762.09;;;25.21;51.34
64362;BME280;50685;53.346;-6.296;2023-06-24T08:32:12;101770.38;;;25.49;50.49
64362;BME280;50685;53.346;-6.296;2023-06-24T08:34:41;101790.53;;;25.45;49.74
64362;BME280;50685;53.346;-6.296;2023-06-24T08:37:07;101782.34;;;25.61;49.64
64362;BME280;50685;53.346;-6.296;2023-06-24T08:39:58;101793.53;;;25.71;49.55
64362;BME280;50685;53.346;-6.296;2023-06-24T08:42:27;101749.88;;;25.44;49.24
64362;BME280;50685;53.346;-6.296;2023-06-24T08:44:52;101795.13;;;25.59;49.15
64362;BME280;50685;53.346;-6.296;2023-06-24T08:47:18;101756.53;;;25.69;49.55
64362;BME280;50685;53.346;-6.296;2023-06-24T08:49:48;101766.94;;;25.76;49.13
64362;BME280;50685;53.346;-6.296;2023-06-24T08:52:25;101778.78;;;25.45;50.22
64362;BME280;50685;53.346;-6.296;2023-06-24T08:55:17;101795.94;;;24.83;51.50
64362;BME280;50685;53.346;-6.296;2023-06-24T08:57:43;101760.59;;;24.68;51.41
64362;BME280;50685;53.346;-6.296;2023-06-24T09:00:08;101771.06;;;24.91;51.51
64362;BME280;50685;53.346;-6.296;2023-06-24T09:02:36;101798.53;;;25.16;50.38
64362;BME280;50685;53.346;-6.296;2023-06-24T09:05:05;101753.66;;;25.25;49.88
64362;BME280;50685;53.346;-6.296;2023-06-24T09:07:30;101761.56;;;25.60;48.42
64362;BME280;50685;53.346;-6.296;2023-06-24T09:09:56;101762.69;;;26.01;47.75
64362;BME280;50685;53.346;-6.296;2023-06-24T09:12:31;101751.53;;;26.06;46.84
64362;BME280;50685;53.346;-6.296;2023-06-24T09:14:56;101778.34;;;26.26;46.74
64362;BME280;50685;53.346;-6.296;2023-06-24T09:17:22;101749.59;;;25.93;47.37
64362;BME280;50685;53.346;-6.296;2023-06-24T09:19:54;101756.00;;;25.92;47.08
64362;BME280;50685;53.346;-6.296;2023-06-24T09:22:40;101743.31;;;25.62;47.95
64362;BME280;50685;53.346;-6.296;2023-06-24T09:25:16;101739.00;;;25.44;48.11
64362;BME280;50685;53.346;-6.296;2023-06-24T09:27:50;101758.81;;;25.46;48.25
64362;BME280;50685;53.346;-6.296;2023-06-24T09:30:23;101754.81;;;25.37;49.15
64362;BME280;50685;53.346;-6.296;2023-06-24T09:32:49;101740.72;;;25.14;49.33
64362;BME280;50685;53.346;-6.296;2023-06-24T09:35:23;101766.25;;;24.96;50.14
64362;BME280;50685;53.346;-6.296;2023-06-24T09:37:55;101750.44;;;24.72;50.21
64362;BME280;50685;53.346;-6.296;2023-06-24T09:40:28;101776.59;;;24.89;50.79
64362;BME280;50685;53.346;-6.296;2023-06-24T09:42:58;101748.66;;;24.55;50.71
64362;BME280;50685;53.346;-6.296;2023-06-24T09:45:29;101749.69;;;24.52;49.91
64362;BME280;50685;53.346;-6.296;2023-06-24T09:47:55;101793.75;;;24.90;49.21
64362;BME280;50685;53.346;-6.296;2023-06-24T09:53:15;101758.03;;;24.81;48.12
64362;BME280;50685;53.346;-6.296;2023-06-24T09:55:50;101741.25;;;24.75;48.05
64362;BME280;50685;53.346;-6.296;2023-06-24T09:58:17;101765.75;;;24.89;48.20
64362;BME280;50685;53.346;-6.296;2023-06-24T10:00:43;101764.69;;;24.92;48.52
64362;BME280;50685;53.346;-6.296;2023-06-24T10:03:13;101778.63;;;24.85;48.76
64362;BME280;50685;53.346;-6.296;2023-06-24T10:05:42;101773.34;;;25.45;47.22
64362;BME280;50685;53.346;-6.296;2023-06-24T10:08:31;101783.06;;;25.94;46.13
64362;BME280;50685;53.346;-6.296;2023-06-24T10:11:02;101750.75;;;26.04;45.55
64362;BME280;50685;53.346;-6.296;2023-06-24T10:13:30;101774.66;;;26.42;45.60
64362;BME280;50685;53.346;-6.296;2023-06-24T10:15:56;101785.56;;;26.69;44.93
64362;BME280;50685;53.346;-6.296;2023-06-24T10:21:01;101736.47;;;27.13;42.93
64362;BME280;50685;53.346;-6.296;2023-06-24T10:23:34;101790.88;;;27.54;43.33
64362;BME280;50685;53.346;-6.296;2023-06-24T10:26:11;101734.91;;;27.08;43.80
64362;BME280;50685;53.346;-6.296;2023-06-24T10:37:00;101727.47;;;27.38;43.02
64362;BME280;50685;53.346;-6.296;2023-06-24T10:39:45;101747.03;;;27.83;41.57
64362;BME280;50685;53.346;-6.296;2023-06-24T10:44:50;101716.94;;;28.24;41.10
64362;BME280;50685;53.346;-6.296;2023-06-24T10:47:30;101734.41;;;28.71;40.84
64362;BME280;50685;53.346;-6.296;2023-06-24T10:50:06;101729.81;;;28.72;40.25
64362;BME280;50685;53.346;-6.296;2023-06-24T10:52:32;101743.56;;;29.18;39.70
64362;BME280;50685;53.346;-6.296;2023-06-24T10:54:58;101723.66;;;29.41;39.15
64362;BME280;50685;53.346;-6.296;2023-06-24T10:57:27;101719.81;;;29.43;38.63
64362;BME280;50685;53.346;-6.296;2023-06-24T10:59:55;101743.38;;;29.80;38.59
64362;BME280;50685;53.346;-6.296;2023-06-24T11:02:33;101711.53;;;29.56;37.93
64362;BME280;50685;53.346;-6.296;2023-06-24T11:05:02;101720.72;;;29.55;38.62
64362;BME280;50685;53.346;-6.296;2023-06-24T11:07:34;101727.03;;;29.44;38.73
64362;BME280;50685;53.346;-6.296;2023-06-24T11:10:13;101758.38;;;29.63;38.21
64362;BME280;50685;53.346;-6.296;2023-06-24T11:12:40;101709.66;;;29.68;37.61
64362;BME280;50685;53.346;-6.296;2023-06-24T11:15:10;101735.84;;;30.06;37.35
64362;BME280;50685;53.346;-6.296;2023-06-24T11:17:43;101709.91;;;29.88;37.40
64362;BME280;50685;53.346;-6.296;2023-06-24T11:20:10;101757.59;;;30.08;37.31
64362;BME280;50685;53.346;-6.296;2023-06-24T11:22:37;101714.91;;;29.71;37.37
64362;BME280;50685;53.346;-6.296;2023-06-24T11:25:20;101721.19;;;29.49;37.59
64362;BME280;50685;53.346;-6.296;2023-06-24T11:27:46;101701.66;;;29.42;38.14
64362;BME280;50685;53.346;-6.296;2023-06-24T11:30:16;101740.31;;;29.96;37.73
64362;BME280;50685;53.346;-6.296;2023-06-24T11:32:42;101713.31;;;30.25;37.32
64362;BME280;50685;53.346;-6.296;2023-06-24T11:35:13;101682.06;;;30.28;36.98
64362;BME280;50685;53.346;-6.296;2023-06-24T11:37:41;101706.34;;;30.21;36.85
64362;BME280;50685;53.346;-6.296;2023-06-24T11:40:25;101685.72;;;29.94;36.05
64362;BME280;50685;53.346;-6.296;2023-06-24T11:42:51;101713.28;;;30.37;36.47
64362;BME280;50685;53.346;-6.296;2023-06-24T11:50:35;101665.44;;;29.97;35.73
64362;BME280;50685;53.346;-6.296;2023-06-24T11:53:01;101711.06;;;30.53;35.73
64362;BME280;50685;53.346;-6.296;2023-06-24T11:55:33;101709.41;;;30.95;35.40
64362;BME280;50685;53.346;-6.296;2023-06-24T11:58:04;101716.56;;;31.18;35.31
64362;BME280;50685;53.346;-6.296;2023-06-24T12:00:43;101688.56;;;31.03;34.29
64362;BME280;50685;53.346;-6.296;2023-06-24T12:03:14;101676.84;;;31.13;34.17
64362;BME280;50685;53.346;-6.296;2023-06-24T12:05:40;101706.13;;;31.33;34.50
64362;BME280;50685;53.346;-6.296;2023-06-24T12:08:11;101692.44;;;31.33;33.70
64362;BME280;50685;53.346;-6.296;2023-06-24T12:10:38;101681.72;;;31.30;33.65
64362;BME280;50685;53.346;-6.296;2023-06-24T12:13:04;101679.44;;;31.56;33.47
64362;BME280;50685;53.346;-6.296;2023-06-24T12:15:42;101712.28;;;31.68;33.81
64362;BME280;50685;53.346;-6.296;2023-06-24T12:18:10;101670.09;;;31.38;33.98
64362;BME280;50685;53.346;-6.296;2023-06-24T12:20:35;101727.25;;;31.21;34.86
64362;BME280;50685;53.346;-6.296;2023-06-24T12:23:11;101712.97;;;31.06;34.59
64362;BME280;50685;53.346;-6.296;2023-06-24T12:25:37;101697.88;;;30.80;35.30
64362;BME280;50685;53.346;-6.296;2023-06-24T12:28:02;101709.31;;;30.29;36.32
64362;BME280;50685;53.346;-6.296;2023-06-24T12:30:28;101734.06;;;29.94;36.76
64362;BME280;50685;53.346;-6.296;2023-06-24T12:32:54;101711.38;;;29.46;37.26
64362;BME280;50685;53.346;-6.296;2023-06-24T12:35:19;101697.94;;;29.08;37.94
64362;BME280;50685;53.346;-6.296;2023-06-24T12:37:48;101695.97;;;28.85;38.58
64362;BME280;50685;53.346;-6.296;2023-06-24T12:40:16;101729.34;;;28.65;39.37
64362;BME280;50685;53.346;-6.296;2023-06-24T12:42:42;101690.31;;;28.27;39.39
64362;BME280;50685;53.346;-6.296;2023-06-24T12:45:20;101708.66;;;28.12;40.48
64362;BME280;50685;53.346;-6.296;2023-06-24T12:47:48;101728.81;;;28.23;40.33
64362;BME280;50685;53.346;-6.296;2023-06-24T12:50:15;101725.81;;;28.51;39.89
64362;BME280;50685;53.346;-6.296;2023-06-24T12:52:41;101719.53;;;28.75;39.58
64362;BME280;50685;53.346;-6.296;2023-06-24T12:55:07;101672.84;;;28.78;39.37
64362;BME280;50685;53.346;-6.296;2023-06-24T12:57:35;101665.44;;;29.16;38.98
64362;BME280;50685;53.346;-6.296;2023-06-24T13:00:16;101654.25;;;29.55;38.43
64362;BME280;50685;53.346;-6.296;2023-06-24T13:02:53;101650.88;;;29.85;38.11
64362;BME280;50685;53.346;-6.296;2023-06-24T13:05:19;101667.78;;;30.13;37.72
64362;BME280;50685;53.346;-6.296;2023-06-24T13:07:50;101662.72;;;30.64;36.86
64362;BME280;50685;53.346;-6.296;2023-06-24T13:10:24;101657.34;;;30.73;36.63
64362;BME280;50685;53.346;-6.296;2023-06-24T13:13:12;101620.94;;;30.50;36.59
64362;BME280;50685;53.346;-6.296;2023-06-24T13:15:38;101638.22;;;30.62;37.03
64362;BME280;50685;53.346;-6.296;2023-06-24T13:18:10;101659.41;;;30.81;36.61
64362;BME280;50685;53.346;-6.296;2023-06-24T13:20:50;101635.88;;;30.79;35.97
64362;BME280;50685;53.346;-6.296;2023-06-24T13:23:38;101662.81;;;30.73;36.63
64362;BME280;50685;53.346;-6.296;2023-06-24T13:26:08;101623.94;;;30.80;36.25
64362;BME280;50685;53.346;-6.296;2023-06-24T13:31:41;101627.44;;;31.24;35.60
64362;BME280;50685;53.346;-6.296;2023-06-24T13:34:07;101668.19;;;31.60;35.29
64362;BME280;50685;53.346;-6.296;2023-06-24T13:39:33;101619.81;;;31.06;35.73
64362;BME280;50685;53.346;-6.296;2023-06-24T13:42:01;101628.16;;;31.05;35.65
64362;BME280;50685;53.346;-6.296;2023-06-24T13:44:30;101647.38;;;31.26;35.80
64362;BME280;50685;53.346;-6.296;2023-06-24T13:49:38;101622.91;;;31.34;35.49